sensor_id;sensor_type;location;lat;lon;timestamp;P1;durP1;ratioP1;P2;durP2;ratioP2
31128;SDS011;17777;48.770;8.944;2023-04-24T00:01:25;0.50;;;0.50;;
31128;SDS011;17777;48.770;8.944;2023-04-24T00:03:51;0.30;;;0.20;;
31128;SDS011;17777;48.770;8.944;2023-04-24T00:06:17;1.27;;;0.52;;
31128;SDS011;17777;48.770;8.944;2023-04-24T00:08:43;0.85;;;0.40;;
31128;SDS011;17777;48.770;8.944;2023-04-24T00:11:09;1.23;;;0.40;;
31128;SDS011;17777;48.770;8.944;2023-04-24T00:13:36;1.50;;;0.40;;
31128;SDS011;17777;48.770;8.944;2023-04-24T00:16:03;0.63;;;0.30;;
31128;SDS011;17777;48.770;8.944;2023-04-24T00:18:29;0.88;;;0.30;;
31128;SDS011;17777;48.770;8.944;2023-04-24T00:20:54;0.90;;;0.32;;
31128;SDS011;17777;48.770;8.944;2023-04-24T00:23:20;0.70;;;0.40;;
31128;SDS011;17777;48.770;8.944;2023-04-24T00:25:46;0.68;;;0.40;;
31128;SDS011;17777;48.770;8.944;2023-04-24T00:28:12;1.55;;;0.30;;
31128;SDS011;17777;48.770;8.944;2023-04-24T00:30:37;0.30;;;0.30;;
31128;SDS011;17777;48.770;8.944;2023-04-24T00:33:03;2.42;;;0.28;;
31128;SDS011;17777;48.770;8.944;2023-04-24T00:35:29;1.10;;;0.30;;
31128;SDS011;17777;48.770;8.944;2023-04-24T00:37:55;0.30;;;0.30;;
31128;SDS011;17777;48.770;8.944;2023-04-24T00:40:21;1.30;;;0.30;;
31128;SDS011;17777;48.770;8.944;2023-04-24T00:42:47;0.90;;;0.30;;
31128;SDS011;17777;48.770;8.944;2023-04-24T00:45:13;1.92;;;0.50;;
31128;SDS011;17777;48.770;8.944;2023-04-24T00:47:40;1.40;;;0.30;;
31128;SDS011;17777;48.770;8.944;2023-04-24T00:50:07;0.20;;;0.20;;
31128;SDS011;17777;48.770;8.944;2023-04-24T00:52:34;1.02;;;0.30;;
31128;SDS011;17777;48.770;8.944;2023-04-24T00:54:59;0.20;;;0.20;;
31128;SDS011;17777;48.770;8.944;2023-04-24T00:57:26;0.30;;;0.30;;
31128;SDS011;17777;48.770;8.944;2023-04-24T00:59:52;1.00;;;0.50;;
31128;SDS011;17777;48.770;8.944;2023-04-24T01:02:18;0.30;;;0.30;;
31128;SDS011;17777;48.770;8.944;2023-04-24T01:04:45;0.35;;;0.20;;
31128;SDS011;17777;48.770;8.944;2023-04-24T01:07:11;0.40;;;0.40;;
31128;SDS011;17777;48.770;8.944;2023-04-24T01:09:40;0.70;;;0.38;;
31128;SDS011;17777;48.770;8.944;2023-04-24T01:12:09;1.30;;;0.50;;
31128;SDS011;17777;48.770;8.944;2023-04-24T01:14:36;0.68;;;0.30;;
31128;SDS011;17777;48.770;8.944;2023-04-24T01:17:03;1.08;;;0.40;;
31128;SDS011;17777;48.770;8.944;2023-04-24T01:19:29;0.73;;;0.40;;
31128;SDS011;17777;48.770;8.944;2023-04-24T01:21:56;0.30;;;0.28;;
31128;SDS011;17777;48.770;8.944;2023-04-24T01:24:28;0.55;;;0.40;;
31128;SDS011;17777;48.770;8.944;2023-04-24T01:26:54;0.30;;;0.30;;
31128;SDS011;17777;48.770;8.944;2023-04-24T01:29:20;0.75;;;0.32;;
31128;SDS011;17777;48.770;8.944;2023-04-24T01:31:46;1.75;;;0.28;;
31128;SDS011;17777;48.770;8.944;2023-04-24T01:34:12;0.63;;;0.30;;
31128;SDS011;17777;48.770;8.944;2023-04-24T01:36:39;0.30;;;0.30;;
31128;SDS011;17777;48.770;8.944;2023-04-24T01:39:08;0.95;;;0.30;;
31128;SDS011;17777;48.770;8.944;2023-04-24T01:41:34;1.00;;;0.28;;
31128;SDS011;17777;48.770;8.944;2023-04-24T01:43:59;0.73;;;0.40;;
31128;SDS011;17777;48.770;8.944;2023-04-24T01:46:25;0.65;;;0.35;;
31128;SDS011;17777;48.770;8.944;2023-04-24T01:48:51;0.30;;;0.30;;
31128;SDS011;17777;48.770;8.944;2023-04-24T01:51:18;0.30;;;0.30;;
31128;SDS011;17777;48.770;8.944;2023-04-24T01:53:44;0.60;;;0.35;;
31128;SDS011;17777;48.770;8.944;2023-04-24T01:56:10;0.30;;;0.30;;
31128;SDS011;17777;48.770;8.944;2023-04-24T01:58:37;0.52;;;0.40;;
31128;SDS011;17777;48.770;8.944;2023-04-24T02:01:02;0.22;;;0.22;;
31128;SDS011;17777;48.770;8.944;2023-04-24T02:03:28;0.50;;;0.30;;
31128;SDS011;17777;48.770;8.944;2023-04-24T02:05:56;1.17;;;0.45;;
31128;SDS011;17777;48.770;8.944;2023-04-24T02:08:23;0.30;;;0.30;;
31128;SDS011;17777;48.770;8.944;2023-04-24T02:10:49;0.52;;;0.30;;
31128;SDS011;17777;48.770;8.944;2023-04-24T02:13:15;0.38;;;0.38;;
31128;SDS011;17777;48.770;8.944;2023-04-24T02:15:41;4.85;;;0.47;;
31128;SDS011;17777;48.770;8.944;2023-04-24T02:18:06;0.70;;;0.30;;
31128;SDS011;17777;48.770;8.944;2023-04-24T02:20:32;0.77;;;0.30;;
31128;SDS011;17777;48.770;8.944;2023-04-24T02:23:00;0.52;;;0.30;;
31128;SDS011;17777;48.770;8.944;2023-04-24T02:25:26;1.15;;;0.40;;
31128;SDS011;17777;48.770;8.944;2023-04-24T02:27:54;0.20;;;0.20;;
31128;SDS011;17777;48.770;8.944;2023-04-24T02:30:20;0.68;;;0.28;;
31128;SDS011;17777;48.770;8.944;2023-04-24T02:32:45;1.00;;;0.57;;
31128;SDS011;17777;48.770;8.944;2023-04-24T02:35:11;0.63;;;0.32;;
31128;SDS011;17777;48.770;8.944;2023-04-24T02:37:37;0.30;;;0.30;;
31128;SDS011;17777;48.770;8.944;2023-04-24T02:40:03;1.00;;;0.40;;
31128;SDS011;17777;48.770;8.944;2023-04-24T02:42:30;0.50;;;0.30;;
31128;SDS011;17777;48.770;8.944;2023-04-24T02:44:56;1.10;;;0.40;;
31128;SDS011;17777;48.770;8.944;2023-04-24T02:47:22;0.50;;;0.40;;
31128;SDS011;17777;48.770;8.944;2023-04-24T02:49:48;0.38;;;0.30;;
31128;SDS011;17777;48.770;8.944;2023-04-24T02:52:14;0.80;;;0.40;;
31128;SDS011;17777;48.770;8.944;2023-04-24T02:54:40;1.92;;;0.40;;
31128;SDS011;17777;48.770;8.944;2023-04-24T02:57:06;0.52;;;0.30;;
31128;SDS011;17777;48.770;8.944;2023-04-24T02:59:32;0.82;;;0.30;;
31128;SDS011;17777;48.770;8.944;2023-04-24T03:01:58;0.50;;;0.32;;
31128;SDS011;17777;48.770;8.944;2023-04-24T03:04:24;0.35;;;0.30;;
31128;SDS011;17777;48.770;8.944;2023-04-24T03:06:51;0.63;;;0.30;;
31128;SDS011;17777;48.770;8.944;2023-04-24T03:09:19;0.28;;;0.25;;
31128;SDS011;17777;48.770;8.944;2023-04-24T03:11:48;1.00;;;0.30;;
31128;SDS011;17777;48.770;8.944;2023-04-24T03:14:15;0.40;;;0.40;;
31128;SDS011;17777;48.770;8.944;2023-04-24T03:16:41;0.55;;;0.38;;
31128;SDS011;17777;48.770;8.944;2023-04-24T03:19:07;0.88;;;0.50;;
31128;SDS011;17777;48.770;8.944;2023-04-24T03:21:40;1.03;;;0.27;;
31128;SDS011;17777;48.770;8.944;2023-04-24T03:24:07;0.30;;;0.30;;
31128;SDS011;17777;48.770;8.944;2023-04-24T03:26:33;0.60;;;0.35;;
31128;SDS011;17777;48.770;8.944;2023-04-24T03:29:14;0.35;;;0.35;;
31128;SDS011;17777;48.770;8.944;2023-04-24T03:31:40;0.40;;;0.40;;
31128;SDS011;17777;48.770;8.944;2023-04-24T03:34:06;0.77;;;0.60;;
31128;SDS011;17777;48.770;8.944;2023-04-24T03:36:32;0.82;;;0.40;;
31128;SDS011;17777;48.770;8.944;2023-04-24T03:38:58;0.75;;;0.40;;
31128;SDS011;17777;48.770;8.944;2023-04-24T03:41:31;0.77;;;0.40;;
31128;SDS011;17777;48.770;8.944;2023-04-24T03:44:09;0.85;;;0.40;;
31128;SDS011;17777;48.770;8.944;2023-04-24T03:46:36;0.60;;;0.57;;
31128;SDS011;17777;48.770;8.944;2023-04-24T03:49:02;2.83;;;0.60;;
31128;SDS011;17777;48.770;8.944;2023-04-24T03:51:32;0.90;;;0.43;;
31128;SDS011;17777;48.770;8.944;2023-04-24T03:54:07;0.52;;;0.50;;
31128;SDS011;17777;48.770;8.944;2023-04-24T03:56:36;1.23;;;0.57;;
31128;SDS011;17777;48.770;8.944;2023-04-24T03:59:02;1.77;;;0.35;;
31128;SDS011;17777;48.770;8.944;2023-04-24T04:01:29;0.43;;;0.40;;
31128;SDS011;17777;48.770;8.944;2023-04-24T04:04:03;2.95;;;0.75;;
31128;SDS011;17777;48.770;8.944;2023-04-24T04:06:29;0.75;;;0.50;;
31128;SDS011;17777;48.770;8.944;2023-04-24T04:08:57;0.45;;;0.45;;
31128;SDS011;17777;48.770;8.944;2023-04-24T04:11:24;0.55;;;0.50;;
31128;SDS011;17777;48.770;8.944;2023-04-24T04:13:50;1.02;;;0.43;;
31128;SDS011;17777;48.770;8.944;2023-04-24T04:16:19;0.82;;;0.60;;
31128;SDS011;17777;48.770;8.944;2023-04-24T04:18:47;0.80;;;0.40;;
31128;SDS011;17777;48.770;8.944;2023-04-24T04:21:14;0.30;;;0.30;;
31128;SDS011;17777;48.770;8.944;2023-04-24T04:23:40;0.35;;;0.35;;
31128;SDS011;17777;48.770;8.944;2023-04-24T04:26:12;0.40;;;0.40;;
31128;SDS011;17777;48.770;8.944;2023-04-24T04:29:00;0.40;;;0.40;;
31128;SDS011;17777;48.770;8.944;2023-04-24T04:31:27;4.55;;;0.73;;
31128;SDS011;17777;48.770;8.944;2023-04-24T04:33:54;0.45;;;0.40;;
31128;SDS011;17777;48.770;8.944;2023-04-24T04:36:20;0.50;;;0.50;;
31128;SDS011;17777;48.770;8.944;2023-04-24T04:38:52;0.25;;;0.25;;
31128;SDS011;17777;48.770;8.944;2023-04-24T04:41:39;0.50;;;0.50;;
31128;SDS011;17777;48.770;8.944;2023-04-24T04:44:06;0.80;;;0.40;;
31128;SDS011;17777;48.770;8.944;2023-04-24T04:46:34;0.65;;;0.47;;
31128;SDS011;17777;48.770;8.944;2023-04-24T04:49:10;1.02;;;0.60;;
31128;SDS011;17777;48.770;8.944;2023-04-24T04:51:37;1.25;;;0.50;;
31128;SDS011;17777;48.770;8.944;2023-04-24T04:54:03;0.40;;;0.40;;
31128;SDS011;17777;48.770;8.944;2023-04-24T04:56:30;0.82;;;0.50;;
31128;SDS011;17777;48.770;8.944;2023-04-24T04:58:58;0.60;;;0.30;;
31128;SDS011;17777;48.770;8.944;2023-04-24T05:01:25;0.40;;;0.40;;
31128;SDS011;17777;48.770;8.944;2023-04-24T05:03:54;0.40;;;0.40;;
31128;SDS011;17777;48.770;8.944;2023-04-24T05:06:20;0.40;;;0.40;;
31128;SDS011;17777;48.770;8.944;2023-04-24T05:08:46;0.80;;;0.50;;
31128;SDS011;17777;48.770;8.944;2023-04-24T05:11:30;0.45;;;0.45;;
31128;SDS011;17777;48.770;8.944;2023-04-24T05:13:57;1.27;;;0.57;;
31128;SDS011;17777;48.770;8.944;2023-04-24T05:16:31;0.98;;;0.60;;
31128;SDS011;17777;48.770;8.944;2023-04-24T05:18:58;0.50;;;0.50;;
31128;SDS011;17777;48.770;8.944;2023-04-24T05:21:29;0.75;;;0.68;;
31128;SDS011;17777;48.770;8.944;2023-04-24T05:23:55;0.95;;;0.70;;
31128;SDS011;17777;48.770;8.944;2023-04-24T05:26:40;0.65;;;0.50;;
31128;SDS011;17777;48.770;8.944;2023-04-24T05:29:07;0.45;;;0.45;;
31128;SDS011;17777;48.770;8.944;2023-04-24T05:31:33;0.77;;;0.50;;
31128;SDS011;17777;48.770;8.944;2023-04-24T05:33:59;0.82;;;0.50;;
31128;SDS011;17777;48.770;8.944;2023-04-24T05:36:25;0.50;;;0.47;;
31128;SDS011;17777;48.770;8.944;2023-04-24T05:38:52;1.98;;;0.60;;
31128;SDS011;17777;48.770;8.944;2023-04-24T05:41:18;0.43;;;0.43;;
31128;SDS011;17777;48.770;8.944;2023-04-24T05:43:43;0.55;;;0.47;;
31128;SDS011;17777;48.770;8.944;2023-04-24T05:46:09;0.60;;;0.60;;
31128;SDS011;17777;48.770;8.944;2023-04-24T05:48:38;0.50;;;0.50;;
31128;SDS011;17777;48.770;8.944;2023-04-24T05:51:03;0.88;;;0.70;;
31128;SDS011;17777;48.770;8.944;2023-04-24T05:53:30;0.50;;;0.50;;
31128;SDS011;17777;48.770;8.944;2023-04-24T05:55:56;1.88;;;0.88;;
31128;SDS011;17777;48.770;8.944;2023-04-24T05:58:22;1.13;;;0.70;;
31128;SDS011;17777;48.770;8.944;2023-04-24T06:00:48;0.82;;;0.63;;
31128;SDS011;17777;48.770;8.944;2023-04-24T06:03:16;0.60;;;0.60;;
31128;SDS011;17777;48.770;8.944;2023-04-24T06:05:41;1.23;;;0.90;;
31128;SDS011;17777;48.770;8.944;2023-04-24T06:08:07;1.85;;;1.20;;
31128;SDS011;17777;48.770;8.944;2023-04-24T06:10:37;1.92;;;1.40;;
31128;SDS011;17777;48.770;8.944;2023-04-24T06:13:05;2.00;;;1.27;;
31128;SDS011;17777;48.770;8.944;2023-04-24T06:15:33;1.10;;;1.00;;
31128;SDS011;17777;48.770;8.944;2023-04-24T06:18:04;0.90;;;0.75;;
31128;SDS011;17777;48.770;8.944;2023-04-24T06:20:30;0.85;;;0.60;;
31128;SDS011;17777;48.770;8.944;2023-04-24T06:22:56;1.05;;;0.80;;
31128;SDS011;17777;48.770;8.944;2023-04-24T06:25:24;1.20;;;0.70;;
31128;SDS011;17777;48.770;8.944;2023-04-24T06:27:51;1.30;;;0.82;;
31128;SDS011;17777;48.770;8.944;2023-04-24T06:30:17;1.20;;;0.57;;
31128;SDS011;17777;48.770;8.944;2023-04-24T06:32:43;0.95;;;0.80;;
31128;SDS011;17777;48.770;8.944;2023-04-24T06:35:09;0.70;;;0.63;;
31128;SDS011;17777;48.770;8.944;2023-04-24T06:37:37;1.02;;;0.93;;
31128;SDS011;17777;48.770;8.944;2023-04-24T06:40:04;1.02;;;0.82;;
31128;SDS011;17777;48.770;8.944;2023-04-24T06:42:31;0.70;;;0.65;;
31128;SDS011;17777;48.770;8.944;2023-04-24T06:44:57;1.00;;;0.90;;
31128;SDS011;17777;48.770;8.944;2023-04-24T06:47:23;0.52;;;0.52;;
31128;SDS011;17777;48.770;8.944;2023-04-24T06:49:49;1.17;;;1.00;;
31128;SDS011;17777;48.770;8.944;2023-04-24T06:52:17;0.95;;;0.80;;
31128;SDS011;17777;48.770;8.944;2023-04-24T06:54:43;0.73;;;0.60;;
31128;SDS011;17777;48.770;8.944;2023-04-24T06:57:09;0.63;;;0.60;;
31128;SDS011;17777;48.770;8.944;2023-04-24T06:59:35;1.20;;;0.63;;
31128;SDS011;17777;48.770;8.944;2023-04-24T07:02:02;1.10;;;0.90;;
31128;SDS011;17777;48.770;8.944;2023-04-24T07:04:28;1.27;;;0.90;;
31128;SDS011;17777;48.770;8.944;2023-04-24T07:06:55;1.58;;;0.77;;
31128;SDS011;17777;48.770;8.944;2023-04-24T07:09:23;0.60;;;0.60;;
31128;SDS011;17777;48.770;8.944;2023-04-24T07:11:50;1.05;;;0.75;;
31128;SDS011;17777;48.770;8.944;2023-04-24T07:14:17;0.50;;;0.45;;
31128;SDS011;17777;48.770;8.944;2023-04-24T07:16:44;0.65;;;0.60;;
31128;SDS011;17777;48.770;8.944;2023-04-24T07:19:10;0.70;;;0.70;;
31128;SDS011;17777;48.770;8.944;2023-04-24T07:21:37;0.55;;;0.47;;
31128;SDS011;17777;48.770;8.944;2023-04-24T07:24:03;1.05;;;0.65;;
31128;SDS011;17777;48.770;8.944;2023-04-24T07:26:29;0.50;;;0.50;;
31128;SDS011;17777;48.770;8.944;2023-04-24T07:28:55;0.95;;;0.68;;
31128;SDS011;17777;48.770;8.944;2023-04-24T07:31:21;1.13;;;0.93;;
31128;SDS011;17777;48.770;8.944;2023-04-24T07:33:48;1.95;;;0.70;;
31128;SDS011;17777;48.770;8.944;2023-04-24T07:36:13;0.80;;;0.68;;
31128;SDS011;17777;48.770;8.944;2023-04-24T07:38:46;0.77;;;0.77;;
31128;SDS011;17777;48.770;8.944;2023-04-24T07:41:13;0.68;;;0.68;;
31128;SDS011;17777;48.770;8.944;2023-04-24T07:43:39;1.17;;;0.80;;
31128;SDS011;17777;48.770;8.944;2023-04-24T07:46:06;1.67;;;0.75;;
31128;SDS011;17777;48.770;8.944;2023-04-24T07:48:33;1.55;;;0.73;;
31128;SDS011;17777;48.770;8.944;2023-04-24T07:50:58;0.60;;;0.60;;
31128;SDS011;17777;48.770;8.944;2023-04-24T07:53:24;1.00;;;0.75;;
31128;SDS011;17777;48.770;8.944;2023-04-24T07:55:50;1.50;;;0.65;;
31128;SDS011;17777;48.770;8.944;2023-04-24T07:58:16;1.58;;;0.73;;
31128;SDS011;17777;48.770;8.944;2023-04-24T08:00:42;1.08;;;0.70;;
31128;SDS011;17777;48.770;8.944;2023-04-24T08:03:08;0.70;;;0.60;;
31128;SDS011;17777;48.770;8.944;2023-04-24T08:05:34;0.65;;;0.60;;
31128;SDS011;17777;48.770;8.944;2023-04-24T08:07:59;1.52;;;0.80;;
31128;SDS011;17777;48.770;8.944;2023-04-24T08:10:25;0.50;;;0.50;;
31128;SDS011;17777;48.770;8.944;2023-04-24T08:12:51;0.70;;;0.65;;
31128;SDS011;17777;48.770;8.944;2023-04-24T08:15:17;0.70;;;0.70;;
31128;SDS011;17777;48.770;8.944;2023-04-24T08:17:43;2.47;;;0.70;;
31128;SDS011;17777;48.770;8.944;2023-04-24T08:20:09;2.60;;;0.70;;
31128;SDS011;17777;48.770;8.944;2023-04-24T08:22:41;0.70;;;0.63;;
31128;SDS011;17777;48.770;8.944;2023-04-24T08:25:09;0.70;;;0.70;;
31128;SDS011;17777;48.770;8.944;2023-04-24T08:27:36;1.13;;;1.00;;
31128;SDS011;17777;48.770;8.944;2023-04-24T08:30:02;0.80;;;0.80;;
31128;SDS011;17777;48.770;8.944;2023-04-24T08:32:29;1.40;;;0.80;;
31128;SDS011;17777;48.770;8.944;2023-04-24T08:34:59;0.60;;;0.60;;
31128;SDS011;17777;48.770;8.944;2023-04-24T08:37:25;0.85;;;0.77;;
31128;SDS011;17777;48.770;8.944;2023-04-24T08:39:52;0.80;;;0.80;;
31128;SDS011;17777;48.770;8.944;2023-04-24T08:42:19;2.00;;;0.80;;
31128;SDS011;17777;48.770;8.944;2023-04-24T08:44:46;0.80;;;0.68;;
31128;SDS011;17777;48.770;8.944;2023-04-24T08:47:14;2.13;;;0.90;;
31128;SDS011;17777;48.770;8.944;2023-04-24T08:49:41;9.40;;;1.10;;
31128;SDS011;17777;48.770;8.944;2023-04-24T08:52:08;1.33;;;1.00;;
31128;SDS011;17777;48.770;8.944;2023-04-24T08:54:34;1.83;;;1.08;;
31128;SDS011;17777;48.770;8.944;2023-04-24T08:57:01;1.15;;;0.85;;
31128;SDS011;17777;48.770;8.944;2023-04-24T08:59:29;4.45;;;1.52;;
31128;SDS011;17777;48.770;8.944;2023-04-24T09:01:59;2.30;;;0.90;;
31128;SDS011;17777;48.770;8.944;2023-04-24T09:04:25;1.00;;;0.88;;
31128;SDS011;17777;48.770;8.944;2023-04-24T09:06:55;0.82;;;0.80;;
31128;SDS011;17777;48.770;8.944;2023-04-24T09:09:23;0.95;;;0.80;;
31128;SDS011;17777;48.770;8.944;2023-04-24T09:11:50;0.70;;;0.70;;
31128;SDS011;17777;48.770;8.944;2023-04-24T09:14:20;0.98;;;0.52;;
31128;SDS011;17777;48.770;8.944;2023-04-24T09:16:48;1.73;;;0.85;;
31128;SDS011;17777;48.770;8.944;2023-04-24T09:19:14;1.17;;;1.08;;
31128;SDS011;17777;48.770;8.944;2023-04-24T09:21:40;1.15;;;0.80;;
31128;SDS011;17777;48.770;8.944;2023-04-24T09:24:17;1.10;;;0.75;;
31128;SDS011;17777;48.770;8.944;2023-04-24T09:26:47;0.80;;;0.80;;
31128;SDS011;17777;48.770;8.944;2023-04-24T09:29:15;2.05;;;0.85;;
31128;SDS011;17777;48.770;8.944;2023-04-24T09:31:42;1.38;;;0.85;;
31128;SDS011;17777;48.770;8.944;2023-04-24T09:34:08;1.02;;;0.70;;
31128;SDS011;17777;48.770;8.944;2023-04-24T09:36:37;0.80;;;0.80;;
31128;SDS011;17777;48.770;8.944;2023-04-24T09:39:07;0.95;;;0.60;;
31128;SDS011;17777;48.770;8.944;2023-04-24T09:41:58;3.67;;;1.15;;
31128;SDS011;17777;48.770;8.944;2023-04-24T09:44:27;1.42;;;0.75;;
31128;SDS011;17777;48.770;8.944;2023-04-24T09:46:54;1.00;;;0.70;;
31128;SDS011;17777;48.770;8.944;2023-04-24T09:49:26;1.13;;;0.77;;
31128;SDS011;17777;48.770;8.944;2023-04-24T09:52:10;0.70;;;0.70;;
31128;SDS011;17777;48.770;8.944;2023-04-24T09:54:36;0.60;;;0.60;;
31128;SDS011;17777;48.770;8.944;2023-04-24T09:57:03;0.70;;;0.70;;
31128;SDS011;17777;48.770;8.944;2023-04-24T09:59:30;0.95;;;0.60;;
31128;SDS011;17777;48.770;8.944;2023-04-24T10:01:56;1.48;;;0.70;;
31128;SDS011;17777;48.770;8.944;2023-04-24T10:04:24;0.60;;;0.55;;
31128;SDS011;17777;48.770;8.944;2023-04-24T10:06:52;0.80;;;0.68;;
31128;SDS011;17777;48.770;8.944;2023-04-24T10:09:22;0.82;;;0.57;;
31128;SDS011;17777;48.770;8.944;2023-04-24T10:11:51;0.60;;;0.60;;
31128;SDS011;17777;48.770;8.944;2023-04-24T10:14:21;1.33;;;0.68;;
31128;SDS011;17777;48.770;8.944;2023-04-24T10:16:49;0.85;;;0.70;;
31128;SDS011;17777;48.770;8.944;2023-04-24T10:19:16;0.85;;;0.75;;
31128;SDS011;17777;48.770;8.944;2023-04-24T10:21:45;0.68;;;0.68;;
31128;SDS011;17777;48.770;8.944;2023-04-24T10:24:12;0.70;;;0.60;;
31128;SDS011;17777;48.770;8.944;2023-04-24T10:26:43;0.98;;;0.65;;
31128;SDS011;17777;48.770;8.944;2023-04-24T10:29:14;2.35;;;0.80;;
31128;SDS011;17777;48.770;8.944;2023-04-24T10:31:42;0.70;;;0.70;;
31128;SDS011;17777;48.770;8.944;2023-04-24T10:34:10;1.63;;;0.80;;
31128;SDS011;17777;48.770;8.944;2023-04-24T10:36:38;1.40;;;0.90;;
31128;SDS011;17777;48.770;8.944;2023-04-24T10:39:11;1.13;;;0.75;;
31128;SDS011;17777;48.770;8.944;2023-04-24T10:41:40;1.10;;;0.60;;
31128;SDS011;17777;48.770;8.944;2023-04-24T10:46:37;0.50;;;0.50;;
31128;SDS011;17777;48.770;8.944;2023-04-24T10:49:07;1.38;;;0.60;;
31128;SDS011;17777;48.770;8.944;2023-04-24T10:51:46;1.83;;;0.70;;
31128;SDS011;17777;48.770;8.944;2023-04-24T10:54:22;0.90;;;0.50;;
31128;SDS011;17777;48.770;8.944;2023-04-24T10:59:43;2.03;;;0.60;;
31128;SDS011;17777;48.770;8.944;2023-04-24T11:02:10;0.70;;;0.70;;
31128;SDS011;17777;48.770;8.944;2023-04-24T11:04:36;0.57;;;0.57;;
31128;SDS011;17777;48.770;8.944;2023-04-24T11:07:03;2.33;;;0.93;;
31128;SDS011;17777;48.770;8.944;2023-04-24T11:09:32;1.05;;;0.68;;
31128;SDS011;17777;48.770;8.944;2023-04-24T11:12:03;1.73;;;0.80;;
31128;SDS011;17777;48.770;8.944;2023-04-24T11:17:35;0.93;;;0.50;;
31128;SDS011;17777;48.770;8.944;2023-04-24T11:20:08;0.65;;;0.60;;
31128;SDS011;17777;48.770;8.944;2023-04-24T11:22:37;2.17;;;0.70;;
31128;SDS011;17777;48.770;8.944;2023-04-24T11:25:05;0.80;;;0.50;;
31128;SDS011;17777;48.770;8.944;2023-04-24T11:27:38;1.63;;;0.50;;
31128;SDS011;17777;48.770;8.944;2023-04-24T11:30:06;0.82;;;0.60;;
31128;SDS011;17777;48.770;8.944;2023-04-24T11:37:41;2.08;;;0.80;;
31128;SDS011;17777;48.770;8.944;2023-04-24T11:40:14;0.57;;;0.57;;
31128;SDS011;17777;48.770;8.944;2023-04-24T11:42:45;1.25;;;0.60;;
31128;SDS011;17777;48.770;8.944;2023-04-24T11:45:16;2.60;;;0.77;;
31128;SDS011;17777;48.770;8.944;2023-04-24T11:47:46;1.05;;;0.70;;
31128;SDS011;17777;48.770;8.944;2023-04-24T11:50:15;0.73;;;0.70;;
31128;SDS011;17777;48.770;8.944;2023-04-24T11:52:44;1.05;;;0.90;;
31128;SDS011;17777;48.770;8.944;2023-04-24T11:57:43;0.82;;;0.77;;
31128;SDS011;17777;48.770;8.944;2023-04-24T12:00:18;1.23;;;0.75;;
31128;SDS011;17777;48.770;8.944;2023-04-24T12:02:46;0.60;;;0.60;;
31128;SDS011;17777;48.770;8.944;2023-04-24T12:05:23;0.80;;;0.57;;
31128;SDS011;17777;48.770;8.944;2023-04-24T12:07:52;1.08;;;0.70;;
31128;SDS011;17777;48.770;8.944;2023-04-24T12:10:23;0.60;;;0.60;;
31128;SDS011;17777;48.770;8.944;2023-04-24T12:12:52;1.67;;;0.88;;
31128;SDS011;17777;48.770;8.944;2023-04-24T12:15:18;1.70;;;0.80;;
31128;SDS011;17777;48.770;8.944;2023-04-24T12:17:46;0.55;;;0.55;;
31128;SDS011;17777;48.770;8.944;2023-04-24T12:20:12;1.23;;;0.70;;
31128;SDS011;17777;48.770;8.944;2023-04-24T12:22:43;1.48;;;0.50;;
31128;SDS011;17777;48.770;8.944;2023-04-24T12:25:19;2.80;;;0.70;;
31128;SDS011;17777;48.770;8.944;2023-04-24T12:27:52;1.00;;;0.50;;
31128;SDS011;17777;48.770;8.944;2023-04-24T12:30:21;1.33;;;0.80;;
31128;SDS011;17777;48.770;8.944;2023-04-24T12:32:53;0.90;;;0.60;;
31128;SDS011;17777;48.770;8.944;2023-04-24T12:35:20;0.52;;;0.52;;
31128;SDS011;17777;48.770;8.944;2023-04-24T12:37:48;0.60;;;0.60;;
31128;SDS011;17777;48.770;8.944;2023-04-24T12:40:15;0.50;;;0.50;;
31128;SDS011;17777;48.770;8.944;2023-04-24T12:42:44;0.57;;;0.57;;
31128;SDS011;17777;48.770;8.944;2023-04-24T12:45:16;1.02;;;0.68;;
31128;SDS011;17777;48.770;8.944;2023-04-24T12:47:43;0.55;;;0.55;;
31128;SDS011;17777;48.770;8.944;2023-04-24T12:50:11;1.45;;;0.95;;
31128;SDS011;17777;48.770;8.944;2023-04-24T12:52:39;0.70;;;0.70;;
31128;SDS011;17777;48.770;8.944;2023-04-24T12:55:06;0.73;;;0.70;;
31128;SDS011;17777;48.770;8.944;2023-04-24T12:57:38;0.77;;;0.68;;
31128;SDS011;17777;48.770;8.944;2023-04-24T13:00:05;1.25;;;0.85;;
31128;SDS011;17777;48.770;8.944;2023-04-24T13:02:33;0.80;;;0.80;;
31128;SDS011;17777;48.770;8.944;2023-04-24T13:04:59;0.95;;;0.68;;
31128;SDS011;17777;48.770;8.944;2023-04-24T13:07:26;1.40;;;0.80;;
31128;SDS011;17777;48.770;8.944;2023-04-24T13:09:52;1.05;;;0.73;;
31128;SDS011;17777;48.770;8.944;2023-04-24T13:12:20;0.88;;;0.75;;
31128;SDS011;17777;48.770;8.944;2023-04-24T13:14:46;0.75;;;0.75;;
31128;SDS011;17777;48.770;8.944;2023-04-24T13:17:12;1.58;;;0.90;;
31128;SDS011;17777;48.770;8.944;2023-04-24T13:19:40;1.83;;;0.80;;
31128;SDS011;17777;48.770;8.944;2023-04-24T13:22:08;1.02;;;0.70;;
31128;SDS011;17777;48.770;8.944;2023-04-24T13:24:36;0.70;;;0.70;;
31128;SDS011;17777;48.770;8.944;2023-04-24T13:27:03;1.58;;;0.93;;
31128;SDS011;17777;48.770;8.944;2023-04-24T13:29:28;2.38;;;0.82;;
31128;SDS011;17777;48.770;8.944;2023-04-24T13:31:54;0.77;;;0.68;;
31128;SDS011;17777;48.770;8.944;2023-04-24T13:34:24;0.52;;;0.52;;
31128;SDS011;17777;48.770;8.944;2023-04-24T13:36:52;0.63;;;0.60;;
31128;SDS011;17777;48.770;8.944;2023-04-24T13:39:20;0.40;;;0.40;;
31128;SDS011;17777;48.770;8.944;2023-04-24T13:41:47;0.43;;;0.43;;
31128;SDS011;17777;48.770;8.944;2023-04-24T13:44:13;0.40;;;0.40;;
31128;SDS011;17777;48.770;8.944;2023-04-24T13:46:41;0.50;;;0.50;;
31128;SDS011;17777;48.770;8.944;2023-04-24T13:49:09;0.50;;;0.50;;
31128;SDS011;17777;48.770;8.944;2023-04-24T13:51:36;0.88;;;0.77;;
31128;SDS011;17777;48.770;8.944;2023-04-24T13:54:02;1.25;;;0.70;;
31128;SDS011;17777;48.770;8.944;2023-04-24T13:56:28;1.60;;;0.73;;
31128;SDS011;17777;48.770;8.944;2023-04-24T13:58:53;0.98;;;0.63;;
31128;SDS011;17777;48.770;8.944;2023-04-24T14:01:19;0.70;;;0.60;;
31128;SDS011;17777;48.770;8.944;2023-04-24T14:03:50;1.17;;;0.70;;
31128;SDS011;17777;48.770;8.944;2023-04-24T14:06:19;0.65;;;0.63;;
31128;SDS011;17777;48.770;8.944;2023-04-24T14:08:46;2.33;;;0.70;;
31128;SDS011;17777;48.770;8.944;2023-04-24T14:11:13;1.42;;;0.60;;
31128;SDS011;17777;48.770;8.944;2023-04-24T14:13:40;1.00;;;0.90;;
31128;SDS011;17777;48.770;8.944;2023-04-24T14:16:06;0.73;;;0.65;;
31128;SDS011;17777;48.770;8.944;2023-04-24T14:18:33;0.73;;;0.73;;
31128;SDS011;17777;48.770;8.944;2023-04-24T14:20:59;0.77;;;0.77;;
31128;SDS011;17777;48.770;8.944;2023-04-24T14:23:26;0.60;;;0.60;;
31128;SDS011;17777;48.770;8.944;2023-04-24T14:25:52;0.60;;;0.60;;
31128;SDS011;17777;48.770;8.944;2023-04-24T14:28:21;0.63;;;0.57;;
31128;SDS011;17777;48.770;8.944;2023-04-24T14:30:47;0.55;;;0.55;;
31128;SDS011;17777;48.770;8.944;2023-04-24T14:33:13;1.25;;;0.60;;
31128;SDS011;17777;48.770;8.944;2023-04-24T14:35:40;0.75;;;0.75;;
31128;SDS011;17777;48.770;8.944;2023-04-24T14:38:07;0.88;;;0.60;;
31128;SDS011;17777;48.770;8.944;2023-04-24T14:40:34;1.27;;;0.73;;
31128;SDS011;17777;48.770;8.944;2023-04-24T14:43:00;1.88;;;0.80;;
31128;SDS011;17777;48.770;8.944;2023-04-24T14:45:26;0.73;;;0.73;;
31128;SDS011;17777;48.770;8.944;2023-04-24T14:47:52;0.90;;;0.70;;
31128;SDS011;17777;48.770;8.944;2023-04-24T14:50:19;0.70;;;0.70;;
31128;SDS011;17777;48.770;8.944;2023-04-24T14:52:45;1.17;;;0.75;;
31128;SDS011;17777;48.770;8.944;2023-04-24T14:55:11;0.88;;;0.80;;
31128;SDS011;17777;48.770;8.944;2023-04-24T14:57:38;1.15;;;0.88;;
31128;SDS011;17777;48.770;8.944;2023-04-24T15:00:04;0.93;;;0.82;;
31128;SDS011;17777;48.770;8.944;2023-04-24T15:02:33;1.40;;;0.80;;
31128;SDS011;17777;48.770;8.944;2023-04-24T15:05:02;1.25;;;1.00;;
31128;SDS011;17777;48.770;8.944;2023-04-24T15:07:29;0.77;;;0.77;;